createdAt,value
2018-02-04T00:00:22.288Z,73.54
2018-02-04T00:01:02.841Z,73.35
2018-02-04T00:01:43.715Z,73.73
2018-02-04T00:02:24.244Z,73.73
2018-02-04T00:03:04.808Z,73.45
2018-02-04T00:03:45.370Z,73.26
2018-02-04T00:04:25.992Z,74.11
2018-02-04T00:05:06.595Z,74.11
2018-02-04T00:05:47.162Z,73.73
2018-02-04T00:06:27.702Z,73.83
2018-02-04T00:07:08.307Z,73.54
2018-02-04T00:07:48.882Z,73.64
2018-02-04T00:08:29.438Z,73.35
2018-02-04T00:09:10.000Z,73.16
2018-02-04T00:09:50.564Z,73.35
2018-02-04T00:10:31.138Z,73.07
2018-02-04T00:11:11.741Z,73.35
2018-02-04T00:11:52.289Z,73.3
2018-02-04T00:12:32.825Z,72.97
2018-02-04T00:13:13.409Z,72.69
2018-02-04T00:13:53.985Z,72.69
2018-02-04T00:14:34.585Z,72.69
2018-02-04T00:15:15.131Z,72.41
2018-02-04T00:15:55.711Z,72.5
2018-02-04T00:16:36.506Z,72.22
2018-02-04T00:17:17.194Z,72.31
2018-02-04T00:17:57.751Z,71.93
2018-02-04T00:18:38.356Z,72.16
2018-02-04T00:19:18.923Z,72.03
2018-02-04T00:19:59.502Z,72.16
2018-02-04T00:20:40.061Z,72.12
2018-02-04T00:21:20.637Z,71.55
2018-02-04T00:22:01.237Z,71.08
2018-02-04T00:22:41.788Z,71.08
2018-02-04T00:23:22.341Z,71.17
2018-02-04T00:24:02.911Z,71.08
2018-02-04T00:24:43.458Z,71.55
2018-02-04T00:25:24.023Z,71.27
2018-02-04T00:26:04.616Z,71.65
2018-02-04T00:26:45.140Z,71.65
2018-02-04T00:27:25.712Z,71.36
2018-02-04T00:28:06.251Z,71.93
2018-02-04T00:28:46.824Z,71.74
2018-02-04T00:29:27.352Z,71.84
2018-02-04T00:30:07.932Z,72.03
2018-02-04T00:30:48.487Z,72.12
2018-02-04T00:31:29.042Z,71.65
2018-02-04T00:32:09.587Z,72.12
2018-02-04T00:32:50.140Z,71.74
2018-02-04T00:33:30.696Z,71.93
2018-02-04T00:34:11.245Z,72.12
2018-02-04T00:34:51.795Z,71.65
2018-02-04T00:35:32.345Z,71.74
2018-02-04T00:36:12.901Z,71.27
2018-02-04T00:36:53.475Z,71.4
2018-02-04T00:37:34.054Z,71.27
2018-02-04T00:38:14.609Z,71.27
2018-02-04T00:38:55.160Z,71.55
2018-02-04T00:39:35.714Z,71.17
2018-02-04T00:40:16.244Z,71.27
2018-02-04T00:40:56.781Z,70.98
2018-02-04T00:41:37.330Z,71.08
2018-02-04T00:42:17.875Z,70.98
2018-02-04T00:42:58.424Z,70.51
2018-02-04T00:43:38.989Z,70.42
2018-02-04T00:44:19.533Z,70.51
2018-02-04T00:45:00.111Z,70.7
2018-02-04T00:45:40.661Z,70.61
2018-02-04T00:46:21.217Z,70.42
2018-02-04T00:47:01.784Z,70.61
2018-02-04T00:47:42.339Z,70.51
2018-02-04T00:48:22.905Z,70.51
2018-02-04T00:49:03.444Z,70.79
2018-02-04T00:49:43.989Z,70.42
2018-02-04T00:50:24.551Z,70.79
2018-02-04T00:51:05.144Z,71.08
2018-02-04T00:51:45.720Z,71.17
2018-02-04T00:52:26.274Z,71.17
2018-02-04T00:53:06.838Z,70.98
2018-02-04T00:53:47.386Z,71.17
2018-02-04T00:54:27.928Z,71.17
2018-02-04T00:55:08.467Z,70.89
2018-02-04T00:55:49.037Z,71.17
2018-02-04T00:56:29.581Z,70.7
2018-02-04T00:57:10.117Z,70.51
2018-02-04T00:57:50.736Z,70.51
2018-02-04T00:58:31.226Z,70.51
2018-02-04T00:59:11.776Z,70.51
2018-02-04T00:59:52.340Z,70.32
2018-02-04T01:00:32.896Z,70.7
2018-02-04T01:01:13.466Z,70.32
2018-02-04T01:01:54.015Z,70.14
2018-02-04T01:02:34.598Z,70.42
2018-02-04T01:03:15.155Z,70.51
2018-02-04T01:03:55.731Z,70.14
2018-02-04T01:04:36.276Z,70.61
2018-02-04T01:05:16.864Z,70.23
2018-02-04T01:05:57.415Z,69.85
2018-02-04T01:06:38.005Z,69.95
2018-02-04T01:07:18.566Z,69.76
2018-02-04T01:07:59.281Z,69.85
2018-02-04T01:08:39.841Z,69.76
2018-02-04T01:09:23.356Z,69.57
2018-02-04T01:10:03.938Z,69.47
2018-02-04T01:10:44.533Z,69.47
2018-02-04T01:11:25.086Z,69
2018-02-04T01:12:05.682Z,69
2018-02-04T01:12:46.296Z,68.9
2018-02-04T01:13:26.882Z,68.52
2018-02-04T01:14:07.414Z,69.09
2018-02-04T01:14:47.977Z,68.15
2018-02-04T01:15:28.525Z,68.52
2018-02-04T01:16:09.098Z,68.33
2018-02-04T01:16:49.661Z,68.05
2018-02-04T01:17:30.208Z,68.24
2018-02-04T01:18:10.792Z,68.52
2018-02-04T01:18:51.354Z,68.43
2018-02-04T01:19:31.904Z,68.52
2018-02-04T01:20:12.459Z,68.43
2018-02-04T01:20:52.993Z,68.24
2018-02-04T01:21:33.597Z,67.96
2018-02-04T01:22:14.120Z,67.86
2018-02-04T01:22:54.714Z,68.52
2018-02-04T01:23:35.296Z,67.96
2018-02-04T01:24:15.895Z,67.96
2018-02-04T01:24:56.496Z,67.2
2018-02-04T01:25:37.058Z,67.3
2018-02-04T01:26:17.600Z,68.05
2018-02-04T01:26:58.184Z,67.68
2018-02-04T01:27:38.721Z,67.58
2018-02-04T01:28:19.270Z,67.77
2018-02-04T01:28:59.853Z,67.77
2018-02-04T01:29:40.427Z,67.86
2018-02-04T01:30:20.960Z,67.58
2018-02-04T01:31:01.498Z,67.86
2018-02-04T01:31:42.038Z,67.01
2018-02-04T01:32:22.607Z,67.39
2018-02-04T01:33:03.169Z,66.73
2018-02-04T01:33:43.687Z,66.82
2018-02-04T01:34:24.239Z,66.82
2018-02-04T01:35:04.804Z,67.2
2018-02-04T01:35:45.365Z,67.49
2018-02-04T01:36:25.936Z,67.11
2018-02-04T01:37:06.534Z,67.96
2018-02-04T01:37:47.083Z,68.15
2018-02-04T01:38:27.647Z,68.43
2018-02-04T01:39:08.224Z,68.52
2018-02-04T01:39:48.808Z,68.24
2018-02-04T01:40:29.373Z,68.62
2018-02-04T01:41:09.962Z,68.71
2018-02-04T01:41:50.520Z,69.09
2018-02-04T01:42:31.087Z,69.28
2018-02-04T01:43:11.686Z,69.66
2018-02-04T01:43:52.232Z,69.66
2018-02-04T01:44:32.801Z,69.66
2018-02-04T01:45:13.364Z,69.76
2018-02-04T01:45:53.904Z,69.57
2018-02-04T01:46:34.464Z,69.66
2018-02-04T01:47:15.029Z,69.66
2018-02-04T01:47:55.607Z,69.95
2018-02-04T01:48:36.139Z,69.66
2018-02-04T01:49:16.677Z,69.19
2018-02-04T01:49:57.237Z,69.95
2018-02-04T01:50:37.761Z,69.66
2018-02-04T01:51:18.307Z,69.57
2018-02-04T01:51:58.850Z,69.85
2018-02-04T01:52:39.463Z,69.57
2018-02-04T01:53:20.014Z,69.57
2018-02-04T01:54:00.598Z,69.57
2018-02-04T01:54:41.187Z,69.85
2018-02-04T01:55:21.756Z,69.38
2018-02-04T01:56:02.305Z,69.57
2018-02-04T01:56:42.879Z,69.38
2018-02-04T01:57:23.422Z,69.57
2018-02-04T01:58:03.973Z,69.66
2018-02-04T01:58:44.531Z,69.95
2018-02-04T01:59:25.075Z,70.23
2018-02-04T02:00:05.627Z,70.14
2018-02-04T02:00:46.181Z,70.23
2018-02-04T02:01:26.761Z,69.85
2018-02-04T02:02:07.309Z,69.76
2018-02-04T02:02:47.861Z,69.47
2018-02-04T02:03:28.476Z,69.47
2018-02-04T02:04:09.035Z,69.66
2018-02-04T02:04:49.621Z,69.76
2018-02-04T02:05:30.183Z,69.38
2018-02-04T02:06:10.746Z,69.38
2018-02-04T02:06:51.320Z,69.47
2018-02-04T02:07:31.894Z,69.47
2018-02-04T02:08:12.438Z,69
2018-02-04T02:08:52.995Z,69.09
2018-02-04T02:09:33.566Z,68.81
2018-02-04T02:10:14.134Z,68.52
2018-02-04T02:10:54.682Z,68.43
2018-02-04T02:11:35.232Z,68.24
2018-02-04T02:12:15.836Z,68.24
2018-02-04T02:12:56.399Z,68.15
2018-02-04T02:13:36.960Z,68.33
2018-02-04T02:14:17.521Z,68.43
2018-02-04T02:14:58.061Z,68.24
2018-02-04T02:15:38.645Z,68.52
2018-02-04T02:16:19.166Z,68.43
2018-02-04T02:16:59.717Z,69
2018-02-04T02:17:40.275Z,69
2018-02-04T02:18:20.817Z,69.09
2018-02-04T02:19:01.371Z,68.9
2018-02-04T02:19:41.965Z,69
2018-02-04T02:20:22.507Z,69.28
2018-02-04T02:21:03.052Z,69.09
2018-02-04T02:21:43.598Z,69.38
2018-02-04T02:22:24.173Z,69
2018-02-04T02:23:04.776Z,69
2018-02-04T02:23:45.371Z,69.47
2018-02-04T02:24:25.913Z,68.81
2018-02-04T02:25:06.473Z,68.81
2018-02-04T02:25:47.023Z,69
2018-02-04T02:26:27.626Z,69
2018-02-04T02:27:08.171Z,68.71
2018-02-04T02:27:48.748Z,69.38
2018-02-04T02:28:29.332Z,69.19
2018-02-04T02:29:09.891Z,69.19
2018-02-04T02:29:50.432Z,69.19
2018-02-04T02:30:31.017Z,69
2018-02-04T02:31:11.748Z,69.09
2018-02-04T02:31:52.188Z,68.43
2018-02-04T02:32:32.755Z,68.62
2018-02-04T02:33:13.301Z,69.09
2018-02-04T02:33:53.884Z,68.9
2018-02-04T02:34:34.443Z,69.38
2018-02-04T02:35:15.015Z,69
2018-02-04T02:35:55.585Z,68.52
2018-02-04T02:36:36.135Z,68.43
2018-02-04T02:37:16.694Z,68.43
2018-02-04T02:37:57.245Z,68.33
2018-02-04T02:38:37.831Z,68.24
2018-02-04T02:39:18.388Z,67.96
2018-02-04T02:39:58.929Z,68.15
2018-02-04T02:40:39.490Z,67.77
2018-02-04T02:41:20.035Z,67.96
2018-02-04T02:42:00.558Z,68.15
2018-02-04T02:42:41.105Z,68.15
2018-02-04T02:43:21.696Z,67.86
2018-02-04T02:44:02.257Z,67.77
2018-02-04T02:44:42.808Z,67.68
2018-02-04T02:45:23.393Z,67.68
2018-02-04T02:46:03.958Z,67.86
2018-02-04T02:46:44.546Z,68.15
2018-02-04T02:47:25.104Z,67.68
2018-02-04T02:48:05.700Z,67.86
2018-02-04T02:48:46.239Z,67.86
2018-02-04T02:49:26.778Z,67.58
2018-02-04T02:50:07.378Z,67.86
2018-02-04T02:50:47.924Z,67.68
2018-02-04T02:51:28.536Z,67.58
2018-02-04T02:52:09.070Z,67.49
2018-02-04T02:52:49.694Z,68.15
2018-02-04T02:53:30.270Z,67.58
2018-02-04T02:54:10.826Z,67.39
2018-02-04T02:54:51.375Z,68.15
2018-02-04T02:55:31.958Z,67.49
2018-02-04T02:56:12.480Z,67.39
2018-02-04T02:56:53.037Z,67.2
2018-02-04T02:57:33.627Z,67.39
2018-02-04T02:58:14.198Z,67.39
2018-02-04T02:58:54.744Z,67.3
2018-02-04T02:59:35.333Z,67.01
2018-02-04T03:00:15.899Z,67.39
2018-02-04T03:00:56.458Z,67.39
2018-02-04T03:01:37.009Z,67.3
2018-02-04T03:02:17.546Z,67.11
2018-02-04T03:02:58.119Z,67.39
2018-02-04T03:03:38.666Z,67.39
2018-02-04T03:04:19.228Z,67.2
2018-02-04T03:04:59.766Z,67.11
2018-02-04T03:05:40.342Z,67.3
2018-02-04T03:06:20.913Z,67.2
2018-02-04T03:07:01.511Z,67.11
2018-02-04T03:07:42.075Z,67.11
2018-02-04T03:08:22.622Z,67.49
2018-02-04T03:09:03.193Z,67.39
2018-02-04T03:09:43.773Z,67.2
2018-02-04T03:10:24.331Z,67.49
2018-02-04T03:11:04.862Z,66.92
2018-02-04T03:11:45.404Z,66.82
2018-02-04T03:12:25.947Z,66.82
2018-02-04T03:13:06.495Z,67.36
2018-02-04T03:13:47.037Z,67.26
2018-02-04T03:14:27.580Z,67.3
2018-02-04T03:15:08.139Z,66.73
2018-02-04T03:15:48.696Z,66.82
2018-02-04T03:16:29.236Z,66.53
2018-02-04T03:17:09.805Z,66.31
2018-02-04T03:17:50.331Z,66.03
2018-02-04T03:18:30.866Z,66.22
2018-02-04T03:19:11.429Z,66.5
2018-02-04T03:19:51.979Z,66.79
2018-02-04T03:20:32.528Z,66.88
2018-02-04T03:21:13.088Z,66.79
2018-02-04T03:21:53.638Z,66.98
2018-02-04T03:22:34.187Z,66.88
2018-02-04T03:23:14.765Z,66.69
2018-02-04T03:23:55.329Z,66.88
2018-02-04T03:24:35.856Z,66.6
2018-02-04T03:25:16.433Z,66.98
2018-02-04T03:25:56.975Z,66.6
2018-02-04T03:26:37.531Z,66.6
2018-02-04T03:27:18.119Z,66.69
2018-02-04T03:27:58.684Z,66.88
2018-02-04T03:28:39.250Z,66.88
2018-02-04T03:29:19.834Z,66.69
2018-02-04T03:30:00.384Z,66.69
2018-02-04T03:30:40.982Z,66.88
2018-02-04T03:31:21.507Z,66.88
2018-02-04T03:32:02.049Z,66.98
2018-02-04T03:32:42.611Z,67.36
2018-02-04T03:33:23.179Z,66.98
2018-02-04T03:34:03.717Z,66.88
2018-02-04T03:34:44.327Z,66.98
2018-02-04T03:35:24.890Z,66.79
2018-02-04T03:36:05.441Z,66.98
2018-02-04T03:36:46.025Z,66.79
2018-02-04T03:37:26.590Z,66.98
2018-02-04T03:38:07.143Z,66.88
2018-02-04T03:38:47.693Z,67.07
2018-02-04T03:39:28.243Z,66.6
2018-02-04T03:40:08.789Z,66.31
2018-02-04T03:40:49.360Z,66.31
2018-02-04T03:41:29.968Z,66.69
2018-02-04T03:42:10.542Z,66.6
2018-02-04T03:42:51.088Z,66.41
2018-02-04T03:43:31.643Z,66.41
2018-02-04T03:44:12.208Z,66.88
2018-02-04T03:44:52.753Z,67.07
2018-02-04T03:45:33.321Z,66.98
2018-02-04T03:46:13.906Z,66.88
2018-02-04T03:46:54.472Z,66.88
2018-02-04T03:47:35.103Z,67.07
2018-02-04T03:48:15.645Z,67.17
2018-02-04T03:48:56.272Z,66.69
2018-02-04T03:49:36.829Z,67.17
2018-02-04T03:50:17.379Z,67.55
2018-02-04T03:50:57.947Z,67.07
2018-02-04T03:51:38.503Z,67.26
2018-02-04T03:52:19.057Z,67.26
2018-02-04T03:52:59.656Z,67.36
2018-02-04T03:53:40.232Z,67.45
2018-02-04T03:54:20.846Z,67.45
2018-02-04T03:55:01.370Z,67.45
2018-02-04T03:55:41.979Z,67.45
2018-02-04T03:56:22.461Z,67.36
2018-02-04T03:57:03.049Z,67.45
2018-02-04T03:57:43.601Z,67.74
2018-02-04T03:58:24.182Z,67.93
2018-02-04T03:59:04.759Z,67.55
2018-02-04T03:59:45.330Z,67.36
2018-02-04T04:00:25.870Z,67.36
2018-02-04T04:01:06.458Z,67.26
2018-02-04T04:01:47.010Z,66.98
2018-02-04T04:02:27.564Z,67.07
2018-02-04T04:03:08.246Z,67.07
2018-02-04T04:03:48.740Z,66.69
2018-02-04T04:04:29.319Z,66.88
2018-02-04T04:05:09.917Z,66.69
2018-02-04T04:05:50.502Z,67.17
2018-02-04T04:06:31.031Z,67.36
2018-02-04T04:07:11.600Z,67.64
2018-02-04T04:07:52.178Z,67.45
2018-02-04T04:08:32.731Z,67.45
2018-02-04T04:09:13.284Z,67.45
2018-02-04T04:09:53.829Z,67.93
2018-02-04T04:10:34.383Z,67.93
2018-02-04T04:11:14.941Z,67.64
2018-02-04T04:11:55.495Z,67.64
2018-02-04T04:12:36.041Z,67.74
2018-02-04T04:13:16.595Z,67.83
2018-02-04T04:13:57.195Z,67.74
2018-02-04T04:14:37.789Z,67.83
2018-02-04T04:15:18.351Z,67.64
2018-02-04T04:15:58.898Z,67.83
2018-02-04T04:16:39.451Z,67.83
2018-02-04T04:17:20.010Z,68.3
2018-02-04T04:18:00.556Z,67.83
2018-02-04T04:18:41.171Z,68.3
2018-02-04T04:19:21.781Z,68.3
2018-02-04T04:20:02.349Z,68.4
2018-02-04T04:20:42.878Z,68.4
2018-02-04T04:21:23.456Z,68.3
2018-02-04T04:22:03.998Z,68.21
2018-02-04T04:22:44.544Z,68.21
2018-02-04T04:23:25.109Z,68.49
2018-02-04T04:24:05.674Z,68.49
2018-02-04T04:24:46.207Z,68.21
2018-02-04T04:25:26.769Z,68.02
2018-02-04T04:26:07.316Z,68.21
2018-02-04T04:26:47.948Z,68.4
2018-02-04T04:27:28.519Z,68.4
2018-02-04T04:28:09.040Z,68.87
2018-02-04T04:28:49.602Z,69.06
2018-02-04T04:29:30.181Z,68.68
2018-02-04T04:30:10.723Z,69.06
2018-02-04T04:30:51.308Z,68.96
2018-02-04T04:31:31.845Z,69.06
2018-02-04T04:32:12.390Z,69.06
2018-02-04T04:32:52.928Z,69.06
2018-02-04T04:33:33.515Z,68.96
2018-02-04T04:34:14.089Z,68.96
2018-02-04T04:34:54.684Z,68.96
2018-02-04T04:35:35.248Z,68.96
2018-02-04T04:36:15.830Z,69.34
2018-02-04T04:36:56.446Z,69.25
2018-02-04T04:37:37.028Z,68.96
2018-02-04T04:38:17.610Z,69.34
2018-02-04T04:38:58.185Z,68.87
2018-02-04T04:39:38.710Z,69.25
2018-02-04T04:40:19.305Z,69.15
2018-02-04T04:40:59.867Z,69.25
2018-02-04T04:41:40.402Z,69.25
2018-02-04T04:42:20.945Z,69.15
2018-02-04T04:43:01.465Z,69.25
2018-02-04T04:43:42.007Z,69.06
2018-02-04T04:44:22.612Z,69.06
2018-02-04T04:45:03.188Z,68.96
2018-02-04T04:45:43.770Z,68.87
2018-02-04T04:46:24.361Z,68.4
2018-02-04T04:47:04.915Z,69.06
2018-02-04T04:47:45.513Z,68.77
2018-02-04T04:48:26.045Z,69.15
2018-02-04T04:49:06.579Z,68.87
2018-02-04T04:49:47.151Z,68.77
2018-02-04T04:50:27.710Z,69.44
2018-02-04T04:51:08.257Z,69.25
2018-02-04T04:51:48.789Z,69.34
2018-02-04T04:52:29.325Z,69.25
2018-02-04T04:53:09.906Z,69.91
2018-02-04T04:53:50.454Z,69.53
2018-02-04T04:54:30.991Z,69.63
2018-02-04T04:55:11.577Z,69.72
2018-02-04T04:55:52.138Z,69.63
2018-02-04T04:56:32.692Z,69.63
2018-02-04T04:57:13.234Z,69.82
2018-02-04T04:57:53.783Z,69.82
2018-02-04T04:58:34.344Z,69.72
2018-02-04T04:59:14.900Z,69.44
2018-02-04T04:59:55.443Z,69.72
2018-02-04T05:00:36.038Z,69.82
2018-02-04T05:01:16.611Z,69.63
2018-02-04T05:01:57.170Z,70.39
2018-02-04T05:02:37.826Z,70.01
2018-02-04T05:03:18.374Z,70.29
2018-02-04T05:03:58.931Z,70.39
2018-02-04T05:04:39.538Z,70.2
2018-02-04T05:05:20.194Z,70.67
2018-02-04T05:06:00.758Z,70.57
2018-02-04T05:06:41.326Z,70.57
2018-02-04T05:07:21.862Z,70.57
2018-02-04T05:08:02.424Z,70.57
2018-02-04T05:08:42.976Z,70.29
2018-02-04T05:09:23.599Z,70.39
2018-02-04T05:10:04.193Z,70.39
2018-02-04T05:10:44.792Z,70.39
2018-02-04T05:11:25.335Z,70.39
2018-02-04T05:12:05.865Z,70.2
2018-02-04T05:12:46.452Z,70.67
2018-02-04T05:13:27.015Z,70.76
2018-02-04T05:14:07.626Z,70.86
2018-02-04T05:14:48.180Z,71.04
2018-02-04T05:15:28.733Z,70.95
2018-02-04T05:16:09.314Z,70.86
2018-02-04T05:16:49.909Z,70.86
2018-02-04T05:17:30.434Z,70.95
2018-02-04T05:18:10.993Z,71.14
2018-02-04T05:18:51.563Z,71.14
2018-02-04T05:19:32.103Z,71.14
2018-02-04T05:20:12.645Z,71.33
2018-02-04T05:20:53.195Z,71.04
2018-02-04T05:21:33.753Z,71.33
2018-02-04T05:22:14.305Z,71.23
2018-02-04T05:22:54.856Z,71.42
2018-02-04T05:23:35.409Z,71.52
2018-02-04T05:24:15.942Z,71.61
2018-02-04T05:24:56.482Z,71.9
2018-02-04T05:25:37.047Z,71.9
2018-02-04T05:26:17.610Z,71.71
2018-02-04T05:26:58.141Z,71.61
2018-02-04T05:27:38.678Z,71.42
2018-02-04T05:28:19.250Z,72.09
2018-02-04T05:28:59.837Z,72.09
2018-02-04T05:29:40.402Z,72.28
2018-02-04T05:30:20.967Z,71.9
2018-02-04T05:31:01.534Z,71.71
2018-02-04T05:31:42.073Z,71.71
2018-02-04T05:32:22.602Z,71.9
2018-02-04T05:33:03.205Z,71.9
2018-02-04T05:33:43.735Z,71.71
2018-02-04T05:34:24.336Z,71.9
2018-02-04T05:35:04.924Z,72.09
2018-02-04T05:35:45.482Z,72.09
2018-02-04T05:36:26.045Z,72.18
2018-02-04T05:37:06.611Z,71.52
2018-02-04T05:37:47.205Z,71.9
2018-02-04T05:38:27.754Z,71.9
2018-02-04T05:39:08.312Z,72.09
2018-02-04T05:39:48.847Z,71.99
2018-02-04T05:40:29.416Z,71.99
2018-02-04T05:41:09.981Z,72.09
2018-02-04T05:41:50.535Z,72.18
2018-02-04T05:42:31.214Z,72.09
2018-02-04T05:43:11.749Z,72.18
2018-02-04T05:43:52.313Z,72.18
2018-02-04T05:44:32.867Z,72.28
2018-02-04T05:45:13.428Z,72.09
2018-02-04T05:45:54.013Z,72.09
2018-02-04T05:46:34.612Z,71.99
2018-02-04T05:47:15.238Z,71.9
2018-02-04T05:47:55.816Z,71.8
2018-02-04T05:48:36.366Z,71.9
2018-02-04T05:49:16.913Z,71.9
2018-02-04T05:49:57.462Z,71.99
2018-02-04T05:50:38.049Z,72.09
2018-02-04T05:51:18.593Z,72.28
2018-02-04T05:51:59.139Z,72.09
2018-02-04T05:52:39.711Z,71.99
2018-02-04T05:53:20.272Z,71.99
2018-02-04T05:54:00.810Z,71.99
2018-02-04T05:54:41.401Z,72.09
2018-02-04T05:55:21.988Z,72.09
2018-02-04T05:56:02.580Z,72.18
2018-02-04T05:56:43.117Z,71.71
2018-02-04T05:57:23.648Z,71.8
2018-02-04T05:58:04.244Z,71.99
2018-02-04T05:58:44.802Z,71.9
2018-02-04T05:59:25.436Z,71.33
2018-02-04T06:00:05.912Z,72.09
2018-02-04T06:00:46.460Z,72.09
2018-02-04T06:01:27.015Z,72.09
2018-02-04T06:02:07.566Z,71.9
2018-02-04T06:02:48.116Z,72.18
2018-02-04T06:03:28.739Z,72.18
2018-02-04T06:04:09.289Z,72.28
2018-02-04T06:04:49.854Z,72.18
2018-02-04T06:05:30.420Z,71.8
2018-02-04T06:06:10.997Z,71.9
2018-02-04T06:06:51.577Z,71.9
2018-02-04T06:07:32.096Z,72.37
2018-02-04T06:08:12.648Z,72.28
2018-02-04T06:08:53.196Z,72.47
2018-02-04T06:09:33.777Z,72.37
2018-02-04T06:10:14.290Z,72.66
2018-02-04T06:10:54.848Z,72.66
2018-02-04T06:11:35.389Z,72.66
2018-02-04T06:12:15.934Z,72.85
2018-02-04T06:12:56.475Z,72.66
2018-02-04T06:13:37.024Z,72.66
2018-02-04T06:14:17.558Z,72.56
2018-02-04T06:14:58.110Z,72.37
2018-02-04T06:15:38.681Z,72.66
2018-02-04T06:16:19.233Z,72.47
2018-02-04T06:16:59.819Z,72.85
2018-02-04T06:17:40.466Z,72.85
2018-02-04T06:18:21.061Z,73.03
2018-02-04T06:19:01.635Z,72.85
2018-02-04T06:19:42.193Z,72.75
2018-02-04T06:20:22.791Z,72.75
2018-02-04T06:21:03.303Z,73.03
2018-02-04T06:21:43.860Z,73.03
2018-02-04T06:22:24.447Z,73.6
2018-02-04T06:23:05.043Z,73.41
2018-02-04T06:23:45.595Z,73.41
2018-02-04T06:24:26.149Z,73.32
2018-02-04T06:25:06.698Z,73.41
2018-02-04T06:25:47.253Z,73.41
2018-02-04T06:26:27.810Z,73.41
2018-02-04T06:27:08.374Z,73.41
2018-02-04T06:27:48.935Z,73.6
2018-02-04T06:28:29.476Z,73.69
2018-02-04T06:29:10.090Z,73.32
2018-02-04T06:29:50.593Z,73.41
2018-02-04T06:30:31.178Z,73.5
2018-02-04T06:31:11.749Z,73.41
2018-02-04T06:31:52.296Z,73.41
2018-02-04T06:32:32.844Z,73.41
2018-02-04T06:33:13.419Z,73.03
2018-02-04T06:33:53.990Z,73.41
2018-02-04T06:34:34.733Z,73.13
2018-02-04T06:35:15.469Z,73.13
2018-02-04T06:35:55.990Z,73.13
2018-02-04T06:36:36.572Z,73.32
2018-02-04T06:37:17.148Z,73.03
2018-02-04T06:37:57.702Z,73.13
2018-02-04T06:38:38.290Z,73.13
2018-02-04T06:39:18.874Z,73.22
2018-02-04T06:39:59.633Z,73.22
2018-02-04T06:40:40.190Z,73.03
2018-02-04T06:41:20.619Z,73.6
2018-02-04T06:42:01.450Z,73.13
2018-02-04T06:42:42.010Z,73.32
2018-02-04T06:43:22.487Z,73.5
2018-02-04T06:44:03.074Z,73.32
2018-02-04T06:44:43.639Z,73.13
2018-02-04T06:45:24.253Z,73.32
2018-02-04T06:46:04.953Z,73.41
2018-02-04T06:46:45.527Z,73.22
2018-02-04T06:47:26.221Z,73.13
2018-02-04T06:48:06.888Z,73.5
2018-02-04T06:48:47.428Z,73.22
2018-02-04T06:49:28.001Z,73.41
2018-02-04T06:50:08.719Z,73.41
2018-02-04T06:50:49.337Z,73.5
2018-02-04T06:51:29.870Z,72.94
2018-02-04T06:52:10.434Z,72.85
2018-02-04T06:52:51.018Z,72.09
2018-02-04T06:53:31.620Z,72.37
2018-02-04T06:54:12.211Z,72.47
2018-02-04T06:54:52.797Z,72.28
2018-02-04T06:55:33.374Z,72.56
2018-02-04T06:56:13.946Z,72.28
2018-02-04T06:56:54.537Z,72.37
2018-02-04T06:57:35.115Z,72.47
2018-02-04T06:58:15.681Z,72.28
2018-02-04T06:58:56.232Z,72.37
2018-02-04T06:59:36.777Z,72.47
2018-02-04T07:00:17.322Z,72.28
2018-02-04T07:00:57.837Z,72.18
2018-02-04T07:01:38.384Z,71.71
2018-02-04T07:02:18.944Z,71.9
2018-02-04T07:02:59.500Z,71.9
2018-02-04T07:03:40.054Z,71.9
2018-02-04T07:04:20.672Z,71.99
2018-02-04T07:05:01.248Z,72.18
2018-02-04T07:05:41.789Z,72.09
2018-02-04T07:06:22.352Z,71.9
2018-02-04T07:07:03.011Z,71.99
2018-02-04T07:07:43.547Z,71.71
2018-02-04T07:08:24.110Z,71.71
2018-02-04T07:09:04.736Z,71.61
2018-02-04T07:09:45.229Z,71.61
2018-02-04T07:10:25.783Z,71.04
2018-02-04T07:11:06.361Z,71.14
2018-02-04T07:11:46.914Z,71.14
2018-02-04T07:12:27.494Z,71.52
2018-02-04T07:13:08.048Z,71.33
2018-02-04T07:13:48.602Z,71.61
2018-02-04T07:14:29.174Z,71.61
2018-02-04T07:15:09.741Z,71.71
2018-02-04T07:15:50.303Z,71.52
2018-02-04T07:16:30.861Z,71.9
2018-02-04T07:17:11.410Z,71.8
2018-02-04T07:17:51.966Z,71.9
2018-02-04T07:18:32.535Z,71.9
2018-02-04T07:19:13.093Z,72.09
2018-02-04T07:19:53.647Z,72.09
2018-02-04T07:20:34.207Z,72.09
2018-02-04T07:21:14.767Z,72.09
2018-02-04T07:21:55.404Z,71.61
2018-02-04T07:22:35.995Z,71.71
2018-02-04T07:23:16.560Z,72.47
2018-02-04T07:23:57.102Z,72.09
2018-02-04T07:24:37.663Z,72.28
2018-02-04T07:25:18.199Z,71.99
2018-02-04T07:25:58.753Z,71.99
2018-02-04T07:26:39.311Z,72.09
2018-02-04T07:27:19.852Z,71.9
2018-02-04T07:28:00.424Z,71.71
2018-02-04T07:28:40.968Z,72.09
2018-02-04T07:29:21.517Z,71.42
2018-02-04T07:30:02.079Z,71.42
2018-02-04T07:30:42.614Z,71.71
2018-02-04T07:31:23.162Z,71.8
2018-02-04T07:32:03.745Z,71.8
2018-02-04T07:32:44.309Z,71.42
2018-02-04T07:33:24.890Z,71.61
2018-02-04T07:34:05.459Z,71.9
2018-02-04T07:34:46.011Z,71.61
2018-02-04T07:35:26.555Z,71.8
2018-02-04T07:36:07.128Z,71.8
2018-02-04T07:36:47.677Z,71.9
2018-02-04T07:37:28.237Z,71.99
2018-02-04T07:38:08.794Z,71.61
2018-02-04T07:38:49.350Z,71.9
2018-02-04T07:39:29.897Z,72.09
2018-02-04T07:40:10.475Z,72.18
2018-02-04T07:40:51.038Z,72.18
2018-02-04T07:41:31.612Z,71.8
2018-02-04T07:42:12.189Z,71.9
2018-02-04T07:42:52.741Z,72.56
2018-02-04T07:43:33.296Z,72.09
2018-02-04T07:44:13.895Z,71.9
2018-02-04T07:44:54.420Z,72.28
2018-02-04T07:45:35.018Z,72.56
2018-02-04T07:46:15.631Z,72.56
2018-02-04T07:46:56.201Z,72.56
2018-02-04T07:47:36.770Z,72.56
2018-02-04T07:48:17.306Z,72.47
2018-02-04T07:48:57.883Z,72.47
2018-02-04T07:49:38.479Z,72.37
2018-02-04T07:50:19.041Z,72.47
2018-02-04T07:50:59.606Z,72.56
2018-02-04T07:51:40.152Z,71.8
2018-02-04T07:52:20.704Z,71.9
2018-02-04T07:53:01.245Z,71.61
2018-02-04T07:53:41.809Z,72.09
2018-02-04T07:54:22.364Z,71.8
2018-02-04T07:55:02.916Z,71.99
2018-02-04T07:55:43.441Z,71.99
2018-02-04T07:56:24.011Z,72.18
2018-02-04T07:57:04.567Z,71.99
2018-02-04T07:57:45.116Z,71.8
2018-02-04T07:58:25.683Z,72.18
2018-02-04T07:59:06.247Z,72.28
2018-02-04T07:59:46.839Z,72.56
2018-02-04T08:00:27.379Z,71.99
2018-02-04T08:01:07.944Z,71.9
2018-02-04T08:01:48.500Z,71.9
2018-02-04T08:02:29.082Z,72.37
2018-02-04T08:03:09.632Z,71.8
2018-02-04T08:03:50.210Z,71.9
2018-02-04T08:04:30.809Z,71.99
2018-02-04T08:05:11.379Z,72.09
2018-02-04T08:05:51.922Z,71.99
2018-02-04T08:06:32.484Z,71.8
2018-02-04T08:07:13.051Z,72.09
2018-02-04T08:07:53.559Z,71.61
2018-02-04T08:08:34.132Z,72.28
2018-02-04T08:09:14.672Z,71.9
2018-02-04T08:09:55.218Z,72.28
2018-02-04T08:10:35.778Z,71.9
2018-02-04T08:11:16.387Z,71.9
2018-02-04T08:11:57.102Z,72.18
2018-02-04T08:12:37.680Z,71.71
2018-02-04T08:13:18.244Z,71.99
2018-02-04T08:13:58.822Z,71.99
2018-02-04T08:14:39.376Z,71.99
2018-02-04T08:15:19.922Z,71.99
2018-02-04T08:16:00.616Z,71.99
2018-02-04T08:16:41.339Z,71.99
2018-02-04T08:17:22.185Z,71.9
2018-02-04T08:18:02.909Z,71.99
2018-02-04T08:18:43.758Z,71.99
2018-02-04T08:19:24.489Z,72.28
2018-02-04T08:20:05.035Z,71.8
2018-02-04T08:20:45.603Z,71.9
2018-02-04T08:21:26.222Z,72.28
2018-02-04T08:22:06.768Z,71.99
2018-02-04T08:22:47.319Z,71.9
2018-02-04T08:23:27.878Z,72.37
2018-02-04T08:24:08.450Z,72.18
2018-02-04T08:24:49.014Z,72.09
2018-02-04T08:25:29.570Z,72.09
2018-02-04T08:26:10.129Z,72.09
2018-02-04T08:26:50.695Z,71.9
2018-02-04T08:27:31.245Z,71.9
2018-02-04T08:28:11.784Z,71.99
2018-02-04T08:28:52.321Z,72.28
2018-02-04T08:29:32.877Z,72.37
2018-02-04T08:30:13.440Z,72.09
2018-02-04T08:30:53.980Z,72.18
2018-02-04T08:31:34.551Z,71.99
2018-02-04T08:32:15.131Z,71.9
2018-02-04T08:32:55.679Z,71.8
2018-02-04T08:33:36.316Z,72.09
2018-02-04T08:34:16.896Z,71.9
2018-02-04T08:34:57.448Z,71.8
2018-02-04T08:35:38.123Z,72.09
2018-02-04T08:36:19.264Z,71.14
2018-02-04T08:36:59.827Z,70.86
2018-02-04T08:37:40.409Z,71.08
2018-02-04T08:38:20.950Z,70.51
2018-02-04T08:39:01.852Z,70.7
2018-02-04T08:39:42.571Z,69.47
2018-02-04T08:40:23.445Z,68.65
2018-02-04T08:41:04.125Z,68.37
2018-02-04T08:41:45.306Z,67.52
2018-02-04T08:42:25.714Z,67.08
2018-02-04T08:43:06.477Z,65.84
2018-02-04T08:43:47.079Z,65.22
2018-02-04T08:44:27.664Z,64.08
2018-02-04T08:45:08.223Z,63.32
2018-02-04T08:45:48.774Z,62.21